Time;durP1;ratioP1;P1;durP2;ratioP2;P2;SDS_P1;SDS_P2;PMS_P1;PMS_P2;Temp;Humidity;BMP_temperature;BMP_pressure;BME280_temperature;BME280_humidity;BME280_pressure;Samples;Min_cycle;Max_cycle;Signal;HPM_P1;HPM_P2
2022/06/11 00:00:59;;;;;;;2.85;2.58;;;11.70;99.90;;;;;;4999501;28;20036;-56
2022/06/11 00:03:26;;;;;;;;;;;11.70;99.90;;;;;;5035404;28;20313;-57
2022/06/11 00:05:53;;;;;;;3.50;2.70;;;11.70;99.90;;;;;;5033392;28;19920;-57
2022/06/11 00:08:20;;;;;;;8.80;3.33;;;11.70;99.90;;;;;;5035120;28;20044;-58
2022/06/11 00:10:48;;;;;;;6.85;2.88;;;11.70;99.90;;;;;;5033268;28;20194;-57
2022/06/11 00:13:15;;;;;;;5.35;2.83;;;11.70;99.90;;;;;;5033714;28;20043;-57
2022/06/11 00:15:43;;;;;;;7.30;3.30;;;11.60;99.90;;;;;;5029023;28;20627;-57
2022/06/11 00:18:10;;;;;;;3.92;3.55;;;11.60;99.90;;;;;;5049564;28;20351;-56
2022/06/11 00:20:37;;;;;;;3.65;3.13;;;11.60;99.90;;;;;;5051789;28;20154;-57
2022/06/11 00:23:04;;;;;;;3.30;3.00;;;11.60;99.90;;;;;;5054479;28;20121;-58
2022/06/11 00:25:34;;;;;;;5.07;2.50;;;11.60;99.90;;;;;;5056084;28;20682;-56
2022/06/11 00:28:03;;;;;;;8.60;2.92;;;11.60;99.90;;;;;;5028251;28;20553;-57
2022/06/11 00:30:31;;;;;;;9.82;2.80;;;11.60;99.90;;;;;;5042895;28;20136;-57
2022/06/11 00:32:58;;;;;;;11.70;2.75;;;11.50;99.90;;;;;;5052695;28;20146;-57
2022/06/11 00:35:29;;;;;;;6.40;3.08;;;11.50;99.90;;;;;;5044954;28;20557;-58
2022/06/11 00:37:56;;;;;;;5.45;3.03;;;11.50;99.90;;;;;;5031623;28;20328;-57
2022/06/11 00:40:26;;;;;;;4.75;2.60;;;11.50;99.90;;;;;;5035603;28;20044;-57
2022/06/11 00:42:53;;;;;;;5.78;2.75;;;11.50;99.90;;;;;;5033307;28;20055;-56
2022/06/11 00:45:33;;;;;;;3.47;2.47;;;11.50;99.90;;;;;;5032193;28;20089;-57
2022/06/11 00:48:13;;;;;;;3.00;2.35;;;11.50;99.90;;;;;;5015147;28;20316;-56
2022/06/11 00:50:45;;;;;;;3.40;2.53;;;11.40;99.90;;;;;;5031496;28;20036;-57
2022/06/11 00:53:18;;;;;;;4.07;2.97;;;11.40;99.90;;;;;;5032190;28;20568;-58
2022/06/11 00:55:48;;;;;;;4.57;2.92;;;11.30;99.90;;;;;;5009699;28;20032;-56
2022/06/11 00:58:19;;;;;;;3.42;2.50;;;11.30;99.90;;;;;;5014914;28;20040;-58
2022/06/11 01:00:54;;;;;;;4.10;2.40;;;11.30;99.90;;;;;;5033371;28;20166;-57
2022/06/11 01:03:30;;;;;;;4.72;3.20;;;11.30;99.90;;;;;;5034821;28;20248;-57
2022/06/11 01:06:30;;;;;;;8.20;2.50;;;11.20;99.90;;;;;;5033302;28;20043;-57
2022/06/11 01:09:21;;;;;;;4.15;2.92;;;11.20;99.90;;;;;;5033706;28;20093;-56
2022/06/11 01:11:52;;;;;;;4.57;3.13;;;11.20;99.90;;;;;;5033173;28;20572;-57
2022/06/11 01:14:31;;;;;;;7.50;3.47;;;11.20;99.90;;;;;;5014679;28;20336;-57
2022/06/11 01:17:26;;;;;;;5.13;3.70;;;11.20;99.90;;;;;;5019790;28;20220;-57
2022/06/11 01:20:26;;;;;;;3.92;2.97;;;11.10;99.90;;;;;;5034463;28;20152;-57
2022/06/11 01:23:19;;;;;;;15.07;3.95;;;11.10;99.90;;;;;;5054412;28;20036;-57
2022/06/11 01:26:03;;;;;;;5.43;3.20;;;11.20;99.90;;;;;;5051360;28;20039;-57
2022/06/11 01:28:45;;;;;;;3.90;2.70;;;11.20;99.90;;;;;;5022811;28;20542;-57
2022/06/11 01:31:24;;;;;;;4.57;2.80;;;11.10;99.90;;;;;;5031524;28;20209;-57
2022/06/11 01:34:06;;;;;;;4.30;3.40;;;11.10;99.90;;;;;;5055208;28;20553;-57
2022/06/11 01:36:38;;;;;;;4.50;2.92;;;11.10;99.90;;;;;;5016055;28;20139;-56
2022/06/11 01:39:19;;;;;;;7.72;3.33;;;11.00;99.90;;;;;;4995221;28;20076;-56
2022/06/11 01:42:06;;;;;;;3.97;2.78;;;11.00;99.90;;;;;;5021484;28;20357;-56
2022/06/11 01:44:35;;;;;;;;;;;11.00;99.90;;;;;;5034830;28;20139;-57
2022/06/11 01:47:03;;;;;;;7.57;3.10;;;11.00;99.90;;;;;;5033000;28;19920;-57
2022/06/11 01:49:33;;;;;;;4.97;2.92;;;10.90;99.90;;;;;;5033740;28;20044;-57
2022/06/11 01:52:17;;;;;;;5.85;3.10;;;10.90;99.90;;;;;;5032095;28;20048;-56
2022/06/11 01:54:53;;;;;;;5.45;3.28;;;10.90;99.90;;;;;;5009227;28;20043;-58
2022/06/11 01:57:55;;;;;;;3.78;2.97;;;10.90;99.90;;;;;;5016173;28;20595;-56
2022/06/11 02:00:30;;;;;;;5.32;2.65;;;10.90;99.90;;;;;;5017580;28;20051;-57
2022/06/11 02:03:28;;;;;;;5.80;3.25;;;10.90;99.90;;;;;;5017585;28;20041;-57
2022/06/11 02:06:30;;;;;;;4.32;2.85;;;10.80;99.90;;;;;;5017973;28;20460;-58
2022/06/11 02:09:19;;;;;;;2.88;2.63;;;10.80;99.90;;;;;;4977558;28;20337;-57
2022/06/11 02:11:55;;;;;;;4.75;2.80;;;10.80;99.90;;;;;;5024878;28;20043;-58
2022/06/11 02:14:32;;;;;;;2.35;2.15;;;10.80;99.90;;;;;;5036093;28;20537;-57
2022/06/11 02:17:02;;;;;;;3.40;2.53;;;10.80;99.90;;;;;;5024668;28;20573;-58
2022/06/11 02:19:36;;;;;;;8.98;3.10;;;10.80;99.90;;;;;;5054192;28;20213;-58
2022/06/11 02:22:14;;;;;;;9.63;2.60;;;10.80;99.90;;;;;;5055884;28;20217;-58
2022/06/11 02:24:44;;;;;;;;;;;10.70;99.90;;;;;;5057218;28;20092;-58
2022/06/11 02:27:17;;;;;;;3.78;2.97;;;10.70;99.90;;;;;;5044738;28;20529;-57
2022/06/11 02:29:46;;;;;;;9.35;3.35;;;10.70;99.90;;;;;;4999388;28;20037;-58
2022/06/11 02:32:16;;;;;;;5.45;2.60;;;10.70;99.90;;;;;;4999917;28;20240;-58
2022/06/11 02:34:50;;;;;;;4.28;2.60;;;10.70;99.90;;;;;;5019464;28;20043;-58
2022/06/11 02:37:27;;;;;;;3.05;2.75;;;10.70;99.90;;;;;;5016698;28;20553;-58
2022/06/11 02:39:57;;;;;;;4.70;2.63;;;10.70;99.90;;;;;;5016057;28;20041;-58
2022/06/11 02:42:25;;;;;;;8.23;2.53;;;10.60;99.90;;;;;;5030124;28;20347;-58
2022/06/11 02:44:53;;;;;;;5.15;2.97;;;10.60;99.90;;;;;;5015632;28;20032;-57
2022/06/11 02:47:22;;;;;;;3.70;2.70;;;10.60;99.90;;;;;;5037171;28;20044;-57
2022/06/11 02:49:50;;;;;;;4.82;2.80;;;10.60;99.90;;;;;;5035825;28;20040;-57
2022/06/11 02:52:22;;;;;;;4.70;3.13;;;10.50;99.90;;;;;;5037468;28;20560;-59
2022/06/11 02:54:51;;;;;;;4.10;2.78;;;10.50;99.90;;;;;;5031066;28;20304;-58
2022/06/11 02:57:23;;;;;;;3.35;2.63;;;10.50;99.90;;;;;;5030430;28;20560;-57
2022/06/11 02:59:51;;;;;;;5.43;2.80;;;10.40;99.90;;;;;;5019113;28;20043;-58
2022/06/11 03:02:20;;;;;;;8.68;3.28;;;10.40;99.90;;;;;;5032572;28;20276;-58
2022/06/11 03:04:47;;;;;;;3.90;2.88;;;10.40;99.90;;;;;;5035261;28;20571;-58
2022/06/11 03:07:15;;;;;;;5.45;2.90;;;10.30;99.90;;;;;;5016733;28;20050;-58
2022/06/11 03:09:42;;;;;;;3.45;2.92;;;10.30;99.90;;;;;;5015046;28;20411;-59
2022/06/11 03:12:13;;;;;;;3.35;2.35;;;10.30;99.90;;;;;;5031729;28;20213;-57
2022/06/11 03:14:41;;;;;;;4.38;2.97;;;10.30;99.90;;;;;;5016124;28;20563;-58
2022/06/11 03:17:10;;;;;;;3.72;2.70;;;10.20;99.90;;;;;;5022163;28;20590;-57
2022/06/11 03:19:38;;;;;;;6.65;2.90;;;10.30;99.90;;;;;;5034553;28;20043;-57
2022/06/11 03:22:05;;;;;;;4.25;2.78;;;10.20;99.90;;;;;;5054835;28;20035;-59
2022/06/11 03:24:32;;;;;;;5.28;3.08;;;10.20;99.90;;;;;;5036402;28;20592;-59
2022/06/11 03:26:59;;;;;;;7.80;3.00;;;10.20;99.90;;;;;;5026292;28;20059;-58
2022/06/11 03:29:26;;;;;;;;;;;10.20;99.90;;;;;;5013449;28;20036;-57
2022/06/11 03:31:54;;;;;;;7.90;3.50;;;10.20;99.90;;;;;;5003486;28;20012;-57
2022/06/11 03:34:22;;;;;;;3.53;3.05;;;10.20;99.90;;;;;;5032490;28;20058;-58
2022/06/11 03:36:52;;;;;;;9.25;3.10;;;10.20;99.90;;;;;;4992373;28;20040;-56
2022/06/11 03:39:20;;;;;;;3.20;2.50;;;10.20;99.90;;;;;;5016495;28;20049;-57
2022/06/11 03:41:48;;;;;;;4.32;3.25;;;10.20;99.90;;;;;;5022057;28;20033;-61
2022/06/11 03:44:16;;;;;;;9.27;3.72;;;10.30;99.90;;;;;;5035376;28;20579;-58
2022/06/11 03:46:44;;;;;;;6.45;3.10;;;10.30;99.90;;;;;;5032285;28;20508;-58
2022/06/11 03:49:12;;;;;;;6.60;3.40;;;10.30;99.90;;;;;;5035306;28;20040;-57
2022/06/11 03:51:39;;;;;;;6.20;3.03;;;10.30;99.90;;;;;;5015966;28;20056;-58
2022/06/11 03:54:07;;;;;;;4.47;2.75;;;10.30;99.90;;;;;;5013334;28;20564;-57
2022/06/11 03:56:36;;;;;;;5.47;2.60;;;10.30;99.90;;;;;;5029705;28;20040;-58
2022/06/11 03:59:04;;;;;;;5.72;3.22;;;10.30;99.90;;;;;;5010364;28;20037;-57
2022/06/11 04:01:37;;;;;;;5.65;2.97;;;10.30;99.90;;;;;;5015242;28;20055;-58
2022/06/11 04:04:08;;;;;;;6.47;2.58;;;10.40;99.90;;;;;;4994747;28;20596;-57
2022/06/11 04:06:41;;;;;;;4.72;2.50;;;10.40;99.90;;;;;;5014829;28;20037;-58
2022/06/11 04:09:13;;;;;;;3.45;3.13;;;10.50;99.90;;;;;;4994432;28;20353;-58
2022/06/11 04:11:41;;;;;;;4.20;3.33;;;10.50;99.90;;;;;;5021836;28;20032;-57
2022/06/11 04:14:08;;;;;;;6.95;3.25;;;10.60;99.90;;;;;;5030431;28;20040;-58
2022/06/11 04:16:42;;;;;;;3.50;2.78;;;10.60;99.90;;;;;;5018353;28;21150;-58
2022/06/11 04:19:15;;;;;;;5.40;2.53;;;10.60;99.90;;;;;;5032444;28;20040;-58
2022/06/11 04:21:43;;;;;;;5.32;3.35;;;10.70;99.90;;;;;;5031732;28;20059;-58
2022/06/11 04:24:11;;;;;;;2.92;2.63;;;10.70;99.90;;;;;;5053932;28;20032;-59
2022/06/11 04:26:42;;;;;;;4.55;2.85;;;10.80;99.90;;;;;;5043911;28;20036;-58
2022/06/11 04:29:12;;;;;;;4.45;2.60;;;10.80;99.90;;;;;;5037255;28;20050;-58
2022/06/11 04:31:39;;;;;;;4.07;3.22;;;10.90;99.90;;;;;;5033924;28;20076;-58
2022/06/11 04:34:13;;;;;;;5.68;3.35;;;10.90;99.90;;;;;;5050663;28;20611;-56
2022/06/11 04:36:41;;;;;;;7.13;3.78;;;11.00;99.90;;;;;;5015549;28;20109;-58
2022/06/11 04:39:09;;;;;;;5.70;3.25;;;11.10;99.90;;;;;;5010981;28;20048;-56
2022/06/11 04:41:36;;;;;;;3.50;2.88;;;11.10;99.90;;;;;;5004519;28;20356;-57
2022/06/11 04:44:04;;;;;;;3.05;2.75;;;11.20;99.90;;;;;;5031810;28;20051;-58
2022/06/11 04:46:32;;;;;;;4.97;2.70;;;11.30;99.90;;;;;;5034088;28;20036;-58
2022/06/11 04:48:59;;;;;;;3.33;2.45;;;11.30;99.90;;;;;;5015114;28;20044;-58
2022/06/11 04:51:26;;;;;;;3.00;2.65;;;11.40;99.90;;;;;;5014957;28;20049;-59
2022/06/11 04:53:53;;;;;;;5.70;3.13;;;11.40;99.90;;;;;;5032803;28;20461;-58
2022/06/11 04:56:24;;;;;;;4.82;2.58;;;11.50;99.90;;;;;;4995459;28;20055;-58
2022/06/11 04:58:52;;;;;;;7.85;3.30;;;11.60;99.90;;;;;;5002954;28;20454;-57
2022/06/11 05:01:26;;;;;;;6.03;2.75;;;11.70;99.90;;;;;;4990307;28;20041;-58
2022/06/11 05:03:53;;;;;;;4.78;3.03;;;11.80;99.90;;;;;;5013181;28;20040;-57
2022/06/11 05:06:24;;;;;;;3.25;2.67;;;11.90;99.90;;;;;;5012232;28;20040;-58
2022/06/11 05:08:52;;;;;;;4.50;2.50;;;12.00;99.90;;;;;;5012432;28;20055;-57
2022/06/11 05:11:19;;;;;;;5.55;2.65;;;12.10;99.90;;;;;;4998902;28;20128;-57
2022/06/11 05:13:47;;;;;;;5.05;2.75;;;12.10;99.90;;;;;;5012731;28;20360;-56
2022/06/11 05:16:18;;;;;;;5.22;2.63;;;12.20;99.90;;;;;;5034241;28;20557;-56
2022/06/11 05:18:45;;;;;;;5.22;2.67;;;12.40;99.90;;;;;;4989021;28;20052;-57
2022/06/11 05:21:12;;;;;;;4.75;2.45;;;12.40;99.90;;;;;;5014100;28;20542;-57
2022/06/11 05:23:39;;;;;;;3.58;2.88;;;12.50;99.90;;;;;;5014081;28;20041;-57
2022/06/11 05:26:17;;;;;;;3.38;2.40;;;12.60;99.90;;;;;;5013099;28;20093;-56
2022/06/11 05:28:45;;;;;;;4.13;2.60;;;12.70;99.90;;;;;;5036261;28;20836;-57
2022/06/11 05:31:12;;;;;;;3.85;2.75;;;12.70;99.90;;;;;;5029723;28;20870;-57
2022/06/11 05:33:40;;;;;;;2.53;2.20;;;12.80;99.90;;;;;;5032193;28;20263;-58
2022/06/11 05:36:07;;;;;;;2.13;1.95;;;12.90;99.90;;;;;;4998474;28;20101;-56
2022/06/11 05:38:34;;;;;;;8.02;3.25;;;13.00;99.90;;;;;;5035787;28;20040;-58
2022/06/11 05:41:02;;;;;;;5.93;2.35;;;13.00;99.90;;;;;;5015310;28;20348;-57
2022/06/11 05:43:29;;;;;;;6.80;2.40;;;13.10;99.90;;;;;;4981164;28;20044;-57
2022/06/11 05:46:03;;;;;;;5.68;2.10;;;13.20;99.90;;;;;;5018285;28;20214;-58
2022/06/11 05:48:35;;;;;;;5.22;2.63;;;13.30;99.90;;;;;;4982736;28;20044;-54
2022/06/11 05:51:03;;;;;;;6.28;3.05;;;13.40;99.90;;;;;;5016722;28;20044;-53
2022/06/11 05:53:33;;;;;;;3.90;2.55;;;13.40;99.90;;;;;;5015947;28;20537;-53
2022/06/11 05:56:03;;;;;;;3.40;2.25;;;13.60;99.90;;;;;;5017161;28;20163;-55
2022/06/11 05:58:43;;;;;;;6.82;2.35;;;13.70;99.90;;;;;;5007692;28;20048;-54
2022/06/11 06:01:18;;;;;;;4.72;2.42;;;13.80;99.90;;;;;;5015948;28;20045;-53
2022/06/11 06:03:45;;;;;;;2.15;1.92;;;13.90;99.90;;;;;;5014544;28;20040;-54
2022/06/11 06:06:12;;;;;;;1.98;1.88;;;14.00;99.90;;;;;;5013877;28;20332;-54
2022/06/11 06:08:40;;;;;;;;;;;14.10;99.90;;;;;;5016811;28;20309;-55
2022/06/11 06:11:08;;;;;;;3.22;2.00;;;14.20;99.90;;;;;;5011894;28;20085;-55
2022/06/11 06:13:47;;;;;;;2.45;2.22;;;14.40;99.90;;;;;;5037053;28;20040;-55
2022/06/11 06:16:20;;;;;;;3.85;2.45;;;14.50;99.90;;;;;;5014935;28;20028;-54
2022/06/11 06:18:49;;;;;;;6.85;2.63;;;14.60;99.90;;;;;;5017454;28;20140;-57
2022/06/11 06:21:19;;;;;;;2.53;2.08;;;14.80;99.90;;;;;;5013304;28;20044;-54
2022/06/11 06:23:46;;;;;;;7.15;2.15;;;14.90;99.90;;;;;;4997366;28;20900;-55
2022/06/11 06:26:13;;;;;;;6.22;2.25;;;15.00;99.90;;;;;;4999711;28;20037;-54
2022/06/11 06:28:41;;;;;;;3.60;2.55;;;15.10;99.90;;;;;;5041703;28;20062;-54
2022/06/11 06:31:11;;;;;;;5.40;2.55;;;15.30;99.90;;;;;;5013743;28;20040;-55
2022/06/11 06:33:39;;;;;;;5.25;2.58;;;15.30;99.90;;;;;;5047760;28;20740;-55
2022/06/11 06:36:07;;;;;;;6.15;2.80;;;15.50;99.90;;;;;;5023506;28;20036;-55
2022/06/11 06:38:36;;;;;;;5.97;2.70;;;15.50;99.90;;;;;;5036346;28;20032;-56
2022/06/11 06:41:04;;;;;;;3.90;2.28;;;15.60;99.90;;;;;;5033885;28;20046;-55
2022/06/11 06:43:31;;;;;;;3.47;1.92;;;15.80;99.90;;;;;;5022394;28;20208;-55
2022/06/11 06:45:59;;;;;;;2.53;2.17;;;15.90;99.90;;;;;;5050848;28;20560;-57
2022/06/11 06:48:27;;;;;;;2.40;2.15;;;16.00;99.90;;;;;;5036948;28;20044;-57
2022/06/11 06:50:53;;;;;;;8.40;2.40;;;16.10;99.90;;;;;;5011605;28;20871;-56
2022/06/11 06:53:22;;;;;;;4.85;1.90;;;16.20;99.90;;;;;;5015803;28;20902;-57
2022/06/11 06:55:49;;;;;;;3.83;2.40;;;16.30;99.90;;;;;;5026551;28;20789;-56
2022/06/11 06:58:16;;;;;;;3.85;2.40;;;16.40;99.90;;;;;;5023026;28;20044;-63
2022/06/11 07:00:44;;;;;;;5.40;2.22;;;16.50;99.90;;;;;;5030807;28;20044;-53
2022/06/11 07:03:12;;;;;;;7.32;2.33;;;16.60;99.90;;;;;;5013401;28;20048;-53
2022/06/11 07:05:41;;;;;;;5.13;2.53;;;16.70;99.90;;;;;;4986040;28;20048;-53
2022/06/11 07:08:10;;;;;;;2.85;2.20;;;16.80;99.90;;;;;;5013888;28;20302;-54
2022/06/11 07:10:48;;;;;;;5.07;2.83;;;17.00;99.90;;;;;;5016320;28;20292;-54
2022/06/11 07:13:17;;;;;;;3.08;2.05;;;17.10;99.90;;;;;;5014562;28;20040;-55
2022/06/11 07:15:48;;;;;;;4.22;2.25;;;17.20;99.90;;;;;;4997357;28;20047;-54
2022/06/11 07:18:38;;;;;;;3.30;2.03;;;17.30;99.90;;;;;;5032859;28;20400;-54
2022/06/11 07:21:09;;;;;;;3.35;1.75;;;17.50;99.90;;;;;;5022169;28;20385;-54
2022/06/11 07:23:48;;;;;;;2.72;1.98;;;17.60;99.90;;;;;;5057369;28;20541;-56
2022/06/11 07:26:27;;;;;;;3.30;2.10;;;17.80;99.90;;;;;;5034431;28;20028;-56
2022/06/11 07:29:04;;;;;;;4.65;2.03;;;17.90;99.90;;;;;;5002894;28;20063;-54
2022/06/11 07:31:32;;;;;;;3.72;2.10;;;18.10;99.90;;;;;;4993647;28;20114;-56
2022/06/11 07:34:00;;;;;;;3.17;2.03;;;18.30;99.90;;;;;;5028548;28;20032;-57
2022/06/11 07:36:28;;;;;;;3.92;2.17;;;18.40;99.90;;;;;;5030281;28;20032;-56
2022/06/11 07:38:55;;;;;;;2.38;2.17;;;18.60;99.90;;;;;;5015828;28;20070;-56
2022/06/11 07:41:22;;;;;;;3.47;2.40;;;18.70;99.90;;;;;;5024154;28;20100;-57
2022/06/11 07:43:50;;;;;;;5.75;2.28;;;18.80;99.90;;;;;;5035002;28;20051;-55
2022/06/11 07:46:18;;;;;;;4.07;2.55;;;18.90;99.90;;;;;;5055383;28;20032;-57
2022/06/11 07:48:46;;;;;;;3.20;2.20;;;19.00;99.90;;;;;;5034209;28;20044;-56
2022/06/11 07:51:13;;;;;;;3.58;2.20;;;19.00;99.90;;;;;;5037993;28;20040;-56
2022/06/11 07:53:41;;;;;;;5.72;2.33;;;19.10;99.90;;;;;;5034204;28;20047;-56
2022/06/11 07:56:08;;;;;;;3.75;2.08;;;19.30;99.90;;;;;;5032089;28;20174;-55
2022/06/11 07:58:37;;;;;;;6.80;2.83;;;19.40;99.90;;;;;;5036394;28;20044;-58
2022/06/11 08:01:05;;;;;;;6.25;2.30;;;19.50;99.90;;;;;;5010039;28;20213;-56
2022/06/11 08:03:37;;;;;;;5.63;2.90;;;19.60;99.90;;;;;;5014838;28;20047;-55
2022/06/11 08:06:06;;;;;;;3.88;2.75;;;19.80;99.90;;;;;;5014542;28;20353;-56
2022/06/11 08:08:34;;;;;;;3.58;2.75;;;19.90;99.90;;;;;;4997533;28;20148;-58
2022/06/11 08:11:04;;;;;;;8.13;3.47;;;20.00;99.90;;;;;;5012921;28;20037;-55
2022/06/11 08:13:32;;;;;;;6.78;2.90;;;20.20;99.90;;;;;;4996751;28;20040;-55
2022/06/11 08:16:01;;;;;;;5.78;2.90;;;20.30;99.90;;;;;;4998299;28;20041;-57
2022/06/11 08:18:30;;;;;;;10.50;4.70;;;20.40;99.90;;;;;;5017241;28;20393;-56
2022/06/11 08:20:58;;;;;;;8.25;4.50;;;20.60;99.90;;;;;;5018303;28;20044;-56
2022/06/11 08:23:26;;;;;;;5.63;3.22;;;20.70;99.90;;;;;;5034218;28;20601;-54
2022/06/11 08:25:54;;;;;;;9.98;3.80;;;21.00;99.90;;;;;;5054925;28;20370;-54
2022/06/11 08:28:22;;;;;;;6.65;2.60;;;21.30;99.90;;;;;;4997478;28;20040;-54
2022/06/11 08:30:50;;;;;;;8.02;3.20;;;21.60;99.90;;;;;;4998985;28;20580;-54
2022/06/11 08:33:18;;;;;;;5.15;3.30;;;21.80;99.90;;;;;;4981038;28;20364;-55
2022/06/11 08:35:47;;;;;;;14.10;5.35;;;22.00;99.90;;;;;;5009119;28;20340;-55
2022/06/11 08:38:14;;;;;;;7.72;3.63;;;22.20;99.90;;;;;;5016688;28;20059;-54
2022/06/11 08:40:48;;;;;;;4.75;3.33;;;22.40;99.90;;;;;;5015364;28;20876;-66
2022/06/11 08:43:24;;;;;;;6.00;3.00;;;22.70;99.90;;;;;;5019296;28;20044;-67
2022/06/11 08:46:19;;;;;;;4.13;3.30;;;23.00;99.90;;;;;;5031955;28;20825;-66
2022/06/11 08:49:09;;;;;;;13.90;4.57;;;23.30;99.90;;;;;;5030334;28;20228;-65
2022/06/11 08:52:07;;;;;;;7.15;2.88;;;23.50;99.90;;;;;;5029276;28;20105;-65
2022/06/11 08:54:43;;;;;;;3.63;2.67;;;23.80;99.90;;;;;;5036514;28;20847;-64
2022/06/11 08:57:22;;;;;;;4.57;2.30;;;24.00;99.90;;;;;;5035156;28;20324;-65
2022/06/11 08:59:57;;;;;;;4.05;2.75;;;24.20;99.90;;;;;;5031335;28;20036;-64
2022/06/11 09:02:54;;;;;;;5.28;3.20;;;24.40;99.90;;;;;;4979335;28;20040;-64
2022/06/11 09:05:59;;;;;;;5.15;2.83;;;24.60;98.70;;;;;;4994459;28;20110;-65
2022/06/11 09:08:36;;;;;;;7.50;2.83;;;24.80;99.40;;;;;;4994159;28;20040;-63
2022/06/11 09:11:25;;;;;;;11.50;2.90;;;25.00;97.40;;;;;;4999221;28;20217;-64
2022/06/11 09:13:55;;;;;;;4.65;2.72;;;25.20;94.50;;;;;;5013258;28;20340;-64
2022/06/11 09:16:33;;;;;;;6.50;2.10;;;25.30;94.90;;;;;;5037112;28;20044;-66
2022/06/11 09:19:09;;;;;;;5.00;2.35;;;25.60;92.00;;;;;;5035432;28;20043;-66
2022/06/11 09:21:52;;;;;;;3.90;2.38;;;25.60;79.10;;;;;;5033718;28;20044;-67
2022/06/11 09:24:28;;;;;;;4.07;2.45;;;25.40;77.90;;;;;;5017443;28;20229;-67
2022/06/11 09:27:07;;;;;;;4.20;3.17;;;25.10;76.50;;;;;;5024897;28;20048;-67
2022/06/11 09:30:01;;;;;;;1.92;1.80;;;24.80;78.60;;;;;;5013507;28;20537;-67
2022/06/11 09:32:37;;;;;;;4.03;2.53;;;24.40;84.10;;;;;;5007595;28;20037;-69
2022/06/11 09:35:26;;;;;;;4.05;2.45;;;24.00;80.00;;;;;;5029176;28;20828;-68
2022/06/11 09:38:05;;;;;;;3.78;2.55;;;23.60;87.70;;;;;;5031603;28;20070;-67
2022/06/11 09:40:43;;;;;;;4.70;2.47;;;23.30;90.30;;;;;;5034434;28;20163;-67
2022/06/11 09:43:40;;;;;;;3.53;2.08;;;23.00;92.80;;;;;;4993785;28;20029;-67
2022/06/11 09:46:22;;;;;;;3.95;2.40;;;23.00;95.40;;;;;;4993668;28;20036;-68
2022/06/11 09:49:09;;;;;;;5.82;3.72;;;23.30;90.80;;;;;;5010268;28;20584;-68
2022/06/11 09:51:45;;;;;;;5.05;2.42;;;23.60;83.30;;;;;;5011365;28;20797;-67
2022/06/11 09:54:34;;;;;;;4.25;2.72;;;23.80;77.40;;;;;;5010929;28;20075;-67
2022/06/11 09:57:05;;;;;;;3.90;2.40;;;24.00;79.50;;;;;;4994917;28;20566;-66
2022/06/11 09:59:47;;;;;;;3.70;2.10;;;24.20;76.90;;;;;;5008751;28;20592;-68
2022/06/11 10:02:31;;;;;;;2.97;2.00;;;24.40;80.80;;;;;;5005477;28;20607;-68
2022/06/11 10:05:01;;;;;;;5.15;2.30;;;24.70;79.30;;;;;;5009660;28;20205;-67
2022/06/11 10:07:40;;;;;;;5.70;3.00;;;24.90;73.10;;;;;;5012322;28;20036;-67
2022/06/11 10:10:14;;;;;;;2.67;1.90;;;25.10;69.60;;;;;;5012746;28;20146;-68
2022/06/11 10:12:49;;;;;;;3.65;2.20;;;25.30;72.10;;;;;;5026858;28;20047;-67
2022/06/11 10:15:25;;;;;;;4.18;2.40;;;25.60;75.60;;;;;;5031468;28;20217;-68
2022/06/11 10:18:17;;;;;;;3.90;1.80;;;25.80;67.80;;;;;;5009968;28;20848;-68
2022/06/11 10:20:52;;;;;;;5.53;1.83;;;25.90;70.50;;;;;;5037358;28;20043;-67
2022/06/11 10:23:51;;;;;;;3.28;1.92;;;26.20;70.40;;;;;;5054646;28;20063;-68
2022/06/11 10:26:32;;;;;;;1.70;1.60;;;26.30;65.80;;;;;;5039601;28;20976;-68
2022/06/11 10:29:02;;;;;;;3.88;2.15;;;26.60;62.00;;;;;;5000728;28;20040;-68
2022/06/11 10:31:36;;;;;;;4.15;1.83;;;26.70;62.20;;;;;;4996813;28;20261;-68
2022/06/11 10:34:12;;;;;;;4.60;1.80;;;26.90;63.30;;;;;;5022694;28;20808;-68
2022/06/11 10:36:44;;;;;;;1.85;1.60;;;26.90;63.00;;;;;;5038154;28;20046;-68
2022/06/11 10:39:48;;;;;;;2.95;2.10;;;27.00;62.60;;;;;;5016794;28;20047;-67
2022/06/11 10:42:23;;;;;;;7.10;2.53;;;27.10;64.20;;;;;;4919506;28;20058;-67
2022/06/11 10:44:53;;;;;;;2.35;2.13;;;27.20;63.00;;;;;;5003749;28;20557;-67
2022/06/11 10:47:41;;;;;;;5.75;2.58;;;27.20;63.50;;;;;;5034700;28;20059;-67
2022/06/11 10:50:11;;;;;;;5.53;1.90;;;27.00;57.90;;;;;;5035653;28;20290;-67
2022/06/11 10:53:04;;;;;;;5.80;1.80;;;26.90;61.10;;;;;;5016299;28;20040;-67
2022/06/11 10:55:34;;;;;;;7.13;2.13;;;26.90;63.00;;;;;;5002236;28;20599;-67
2022/06/11 10:58:17;;;;;;;2.83;1.70;;;27.00;60.80;;;;;;5016171;28;20048;-67
2022/06/11 11:00:51;;;;;;;2.75;1.95;;;27.00;63.30;;;;;;5037418;28;20567;-67
2022/06/11 11:03:29;;;;;;;2.90;1.55;;;27.00;61.00;;;;;;5030370;28;20036;-67
2022/06/11 11:06:06;;;;;;;2.50;1.90;;;27.10;59.60;;;;;;5036393;28;20060;-66
2022/06/11 11:08:36;;;;;;;2.78;1.75;;;27.20;58.00;;;;;;4999001;28;20044;-67
2022/06/11 11:11:09;;;;;;;3.13;2.10;;;27.10;59.00;;;;;;5016649;28;20036;-67
2022/06/11 11:13:44;;;;;;;4.32;1.70;;;27.10;56.20;;;;;;5017558;28;20297;-68
2022/06/11 11:16:12;;;;;;;2.65;1.73;;;27.10;57.10;;;;;;4983903;28;20056;-67
2022/06/11 11:19:11;;;;;;;2.67;1.85;;;27.20;58.30;;;;;;5034837;28;20047;-67
2022/06/11 11:21:48;;;;;;;2.08;1.75;;;27.30;59.00;;;;;;5053558;28;20059;-67
2022/06/11 11:24:18;;;;;;;3.08;1.55;;;27.30;58.90;;;;;;5054931;28;20100;-68
2022/06/11 11:27:04;;;;;;;3.65;1.65;;;27.20;59.50;;;;;;5031933;28;20054;-67
2022/06/11 11:29:35;;;;;;;2.45;1.75;;;27.30;58.30;;;;;;4997138;28;20137;-68
2022/06/11 11:32:24;;;;;;;2.08;1.67;;;27.30;58.10;;;;;;5015798;28;20545;-67
2022/06/11 11:34:51;;;;;;;3.58;2.08;;;27.30;59.20;;;;;;5017887;28;20154;-66
2022/06/11 11:37:30;;;;;;;2.28;1.60;;;27.30;59.50;;;;;;5016543;28;20545;-67
2022/06/11 11:40:02;;;;;;;4.38;1.65;;;27.20;58.30;;;;;;5035095;28;20055;-67
2022/06/11 11:42:36;;;;;;;5.80;1.58;;;27.20;57.60;;;;;;5035451;28;20048;-67
2022/06/11 11:45:40;;;;;;;5.43;1.77;;;27.10;57.80;;;;;;5018234;28;20044;-67
2022/06/11 11:48:23;;;;;;;3.10;1.33;;;27.20;56.80;;;;;;5012519;28;20044;-68
2022/06/11 11:51:01;;;;;;;2.70;1.75;;;27.20;57.20;;;;;;5038232;28;20036;-67
2022/06/11 11:53:49;;;;;;;5.45;1.70;;;27.10;57.10;;;;;;4998004;28;20819;-68
2022/06/11 11:56:31;;;;;;;3.03;1.40;;;27.10;56.30;;;;;;5013020;28;20820;-67
2022/06/11 11:59:17;;;;;;;5.70;1.75;;;27.20;56.40;;;;;;5032841;28;20059;-67
2022/06/11 12:01:46;;;;;;;3.65;1.30;;;27.30;56.30;;;;;;5017433;28;20192;-67
2022/06/11 12:04:35;;;;;;;2.28;1.52;;;27.40;55.40;;;;;;5032264;28;20513;-66
2022/06/11 12:07:12;;;;;;;1.88;1.70;;;27.50;55.20;;;;;;5015128;28;20359;-68
2022/06/11 12:10:12;;;;;;;2.37;1.80;;;27.40;56.00;;;;;;4997499;28;20805;-68
2022/06/11 12:12:41;;;;;;;3.78;1.70;;;27.30;55.70;;;;;;5030737;28;20442;-68
2022/06/11 12:15:28;;;;;;;3.50;1.58;;;27.20;56.60;;;;;;5033406;28;20124;-68
2022/06/11 12:18:07;;;;;;;2.05;1.38;;;27.20;57.70;;;;;;5012773;28;20035;-67
2022/06/11 12:20:40;;;;;;;2.58;1.45;;;27.30;56.30;;;;;;5054915;28;20329;-69
2022/06/11 12:23:35;;;;;;;1.13;1.10;;;27.40;56.50;;;;;;5055318;28;20050;-67
2022/06/11 12:26:17;;;;;;;1.20;1.10;;;27.50;54.80;;;;;;5035733;28;20232;-67
2022/06/11 12:28:53;;;;;;;4.20;1.65;;;27.60;53.60;;;;;;5024653;28;20105;-67
2022/06/11 12:31:21;;;;;;;2.80;1.50;;;27.80;56.00;;;;;;5014929;28;20062;-67
2022/06/11 12:33:51;;;;;;;3.80;1.83;;;27.90;54.90;;;;;;4996656;28;20040;-67
2022/06/11 12:36:40;;;;;;;2.97;1.95;;;27.80;54.10;;;;;;5017752;28;20834;-67
2022/06/11 12:39:45;;;;;;;11.00;1.98;;;27.90;54.10;;;;;;4995184;28;20474;-67
2022/06/11 12:42:35;;;;;;;3.10;1.20;;;27.90;53.50;;;;;;5013249;28;20062;-67
2022/06/11 12:45:30;;;;;;;1.92;1.40;;;28.00;53.90;;;;;;4977137;28;20045;-67
2022/06/11 12:48:29;;;;;;;1.70;1.05;;;28.00;52.20;;;;;;4998861;28;20110;-68
2022/06/11 12:51:04;;;;;;;2.97;1.35;;;28.00;51.00;;;;;;4994642;28;20875;-67
2022/06/11 12:53:54;;;;;;;2.75;1.27;;;28.00;50.90;;;;;;5012795;28;20067;-67
2022/06/11 12:56:46;;;;;;;4.93;1.35;;;28.00;47.80;;;;;;5011743;28;20213;-67
2022/06/11 12:59:25;;;;;;;1.13;1.08;;;28.00;51.30;;;;;;5014253;28;20152;-66
2022/06/11 13:01:57;;;;;;;6.82;1.15;;;28.00;50.70;;;;;;5013012;28;20557;-67
2022/06/11 13:04:55;;;;;;;1.80;1.20;;;28.00;50.20;;;;;;5002139;28;20059;-66
2022/06/11 13:07:48;;;;;;;3.60;1.38;;;28.10;50.40;;;;;;5011451;28;20587;-68
2022/06/11 13:10:21;;;;;;;5.15;1.80;;;28.00;50.10;;;;;;5008445;28;20132;-66
2022/06/11 13:13:26;;;;;;;2.13;1.10;;;27.90;49.20;;;;;;5032861;28;20125;-67
2022/06/11 13:15:59;;;;;;;2.38;1.30;;;27.80;51.40;;;;;;4951769;28;20371;-66
2022/06/11 13:18:56;;;;;;;5.88;1.25;;;27.80;51.00;;;;;;5021453;28;20044;-67
2022/06/11 13:21:50;;;;;;;3.53;1.00;;;27.70;50.40;;;;;;5034347;28;20052;-67
2022/06/11 13:24:26;;;;;;;1.73;1.30;;;27.60;51.50;;;;;;5055168;28;20568;-64
2022/06/11 13:27:11;;;;;;;1.95;1.30;;;27.60;50.00;;;;;;5021567;28;20044;-68